createdAt,value
2022-08-09T00:02:54.543Z,92.25
2022-08-09T00:07:59.958Z,92.30
2022-08-09T00:13:05.513Z,92.40
2022-08-09T00:18:20.113Z,92.61
2022-08-09T00:23:56.724Z,92.83
2022-08-09T00:28:52.956Z,93.18
2022-08-09T00:33:57.014Z,93.72
2022-08-09T00:39:00.734Z,94.21
2022-08-09T00:44:13.330Z,94.62
2022-08-09T00:49:30.314Z,94.92
2022-08-09T00:54:35.929Z,95.34
2022-08-09T00:59:47.043Z,95.73
2022-08-09T01:05:14.138Z,95.82
2022-08-09T01:10:42.552Z,95.99
2022-08-09T01:15:53.006Z,96.26
2022-08-09T01:21:51.284Z,96.65
2022-08-09T01:26:59.323Z,96.56
2022-08-09T01:32:31.771Z,96.71
2022-08-09T01:38:06.387Z,97.13
2022-08-09T01:42:54.081Z,97.18
2022-08-09T01:48:00.405Z,97.36
2022-08-09T01:53:20.020Z,97.44
2022-08-09T01:58:26.393Z,97.51
2022-08-09T02:03:35.893Z,98.06
2022-08-09T02:08:58.744Z,97.78
2022-08-09T02:14:07.858Z,97.64
2022-08-09T02:19:12.208Z,97.57
2022-08-09T02:24:26.275Z,97.88
2022-08-09T02:29:35.701Z,98.49
2022-08-09T02:34:51.741Z,98.41
2022-08-09T02:40:10.627Z,98.65
2022-08-09T02:45:35.276Z,99.15
2022-08-09T02:50:51.909Z,99.16
2022-08-09T02:56:01.948Z,98.94
2022-08-09T03:01:11.024Z,99.43
2022-08-09T03:06:21.458Z,99.61
2022-08-09T03:12:05.281Z,99.84
2022-08-09T03:16:48.821Z,99.92
2022-08-09T03:21:52.386Z,99.71
2022-08-09T03:26:56.312Z,99.99
2022-08-09T03:32:00.797Z,99.93
2022-08-09T03:37:10.671Z,99.90
2022-08-09T03:42:29.478Z,99.81
2022-08-09T03:47:36.695Z,99.92
2022-08-09T03:52:44.919Z,99.97
2022-08-09T03:57:57.482Z,99.82
2022-08-09T04:03:15.306Z,99.25
2022-08-09T04:08:28.759Z,99.28
2022-08-09T04:14:37.462Z,99.37
2022-08-09T04:18:55.074Z,99.17
2022-08-09T04:24:00.219Z,99.01
2022-08-09T04:29:07.886Z,99.01
2022-08-09T04:34:14.019Z,98.65
2022-08-09T04:39:21.992Z,97.89
2022-08-09T04:44:27.021Z,97.50
2022-08-09T04:49:53.164Z,97.05
2022-08-09T04:54:59.911Z,96.19
2022-08-09T05:00:05.669Z,95.62
2022-08-09T05:05:10.781Z,95.17
2022-08-09T05:10:14.858Z,94.65
2022-08-09T05:15:38.589Z,94.37
2022-08-09T05:20:40.494Z,93.48
2022-08-09T05:25:43.462Z,93.20
2022-08-09T05:30:48.763Z,93.05
2022-08-09T05:35:54.600Z,92.12
2022-08-09T05:41:00.120Z,91.47
2022-08-09T05:46:03.480Z,90.56
2022-08-09T05:51:30.334Z,90.27
2022-08-09T05:56:29.594Z,90.52
2022-08-09T06:01:34.228Z,90.66
2022-08-09T06:06:49.828Z,90.05
2022-08-09T06:11:57.563Z,89.24
2022-08-09T06:17:00.663Z,88.65
2022-08-09T06:22:15.448Z,88.26
2022-08-09T06:27:18.526Z,87.70
2022-08-09T06:33:39.822Z,87.53
2022-08-09T06:37:52.882Z,86.69
2022-08-09T06:43:07.564Z,86.13
2022-08-09T06:48:16.664Z,85.57
2022-08-09T06:53:33.218Z,84.71
2022-08-09T07:00:51.954Z,84.43
2022-08-09T07:04:04.375Z,84.19
2022-08-09T07:09:08.026Z,84.10
2022-08-09T07:14:30.735Z,83.47
2022-08-09T07:19:34.943Z,82.96
2022-08-09T07:24:40.492Z,82.71
2022-08-09T07:29:47.594Z,81.75
2022-08-09T07:34:52.310Z,80.53
2022-08-09T07:39:55.927Z,80.80
2022-08-09T07:45:02.528Z,80.38
2022-08-09T07:50:09.714Z,80.10
2022-08-09T07:55:13.354Z,79.67
2022-08-09T08:00:36.200Z,79.11
2022-08-09T08:05:54.379Z,77.89
2022-08-09T08:11:15.208Z,77.25
2022-08-09T08:16:29.799Z,75.81
2022-08-09T08:21:39.723Z,73.89
2022-08-09T08:26:55.582Z,72.36
2022-08-09T08:32:04.029Z,72.20
2022-08-09T08:37:14.317Z,71.24
2022-08-09T08:42:18.643Z,69.28
2022-08-09T08:47:29.117Z,68.64
2022-08-09T08:52:58.359Z,68.76
2022-08-09T08:57:58.304Z,67.88
2022-08-09T09:03:11.728Z,66.60
2022-08-09T09:08:30.098Z,64.05
2022-08-09T09:13:54.741Z,62.01
2022-08-09T09:24:29.761Z,57.56
2022-08-09T09:30:08.547Z,57.86
2022-08-09T09:35:09.304Z,58.86
2022-08-09T09:40:13.047Z,57.41
2022-08-09T09:45:26.920Z,55.50
2022-08-09T09:50:51.039Z,54.47
2022-08-09T09:56:04.334Z,53.92
2022-08-09T10:01:31.559Z,52.32
2022-08-09T10:06:47.263Z,50.57
2022-08-09T10:12:12.144Z,50.73
2022-08-09T10:17:50.853Z,50.13
2022-08-09T10:22:42.545Z,50.01
2022-08-09T10:27:58.015Z,50.20
2022-08-09T10:33:01.472Z,50.06
2022-08-09T10:38:33.751Z,51.07
2022-08-09T10:43:36.054Z,51.09
2022-08-09T10:49:19.810Z,51.26
2022-08-09T10:54:24.343Z,51.47
2022-08-09T10:59:31.819Z,51.75
2022-08-09T11:05:30.025Z,51.61
2022-08-09T11:10:53.357Z,50.99
2022-08-09T11:16:37.955Z,50.03
2022-08-09T11:22:04.783Z,49.52
2022-08-09T11:28:05.018Z,48.34
2022-08-09T11:33:28.431Z,47.99
2022-08-09T11:38:35.056Z,46.87
2022-08-09T11:43:49.601Z,45.67
2022-08-09T11:48:57.279Z,44.19
2022-08-09T11:54:28.438Z,44.35
2022-08-09T11:59:37.886Z,43.96
2022-08-09T12:04:41.315Z,42.60
2022-08-09T12:09:50.906Z,41.91
2022-08-09T12:15:04.178Z,42.27
2022-08-09T12:20:21.378Z,42.51
2022-08-09T12:25:36.060Z,43.18
2022-08-09T12:30:40.930Z,45.02
2022-08-09T12:35:44.711Z,46.67
2022-08-09T12:40:52.195Z,47.51
2022-08-09T12:45:59.655Z,48.49
2022-08-09T12:51:04.632Z,48.59
2022-08-09T12:56:43.697Z,49.55
2022-08-09T13:01:49.854Z,49.80
2022-08-09T13:06:54.115Z,49.73
2022-08-09T13:12:03.758Z,49.65
2022-08-09T13:17:15.832Z,49.75
2022-08-09T13:22:37.084Z,49.27
2022-08-09T13:27:55.042Z,48.93
2022-08-09T13:32:58.908Z,48.74
2022-08-09T13:38:03.482Z,48.72
2022-08-09T13:43:10.005Z,48.68
2022-08-09T13:48:14.697Z,48.30
2022-08-09T13:53:18.401Z,48.38
2022-08-09T13:58:21.259Z,48.04
2022-08-09T14:04:02.525Z,47.72
2022-08-09T14:08:47.010Z,47.52
2022-08-09T14:14:24.450Z,47.50
2022-08-09T14:19:13.000Z,47.04
2022-08-09T14:24:22.491Z,47.12
2022-08-09T14:30:35.193Z,45.71
2022-08-09T14:34:58.543Z,44.44
2022-08-09T14:40:01.367Z,44.27
2022-08-09T14:46:45.915Z,43.56
2022-08-09T14:50:34.256Z,43.18
2022-08-09T14:55:37.479Z,42.87
2022-08-09T15:00:48.115Z,40.83
2022-08-09T15:05:55.569Z,38.25
2022-08-09T15:11:04.973Z,35.08
2022-08-09T15:16:10.321Z,35.09
2022-08-09T15:21:54.979Z,34.94
2022-08-09T15:26:35.926Z,35.99
2022-08-09T15:31:48.362Z,38.81
2022-08-09T15:36:52.503Z,41.27
2022-08-09T15:41:55.529Z,42.79
2022-08-09T15:46:58.450Z,42.75
2022-08-09T15:52:03.982Z,42.12
2022-08-09T15:57:09.527Z,42.18
2022-08-09T16:02:13.207Z,42.78
2022-08-09T16:07:17.000Z,43.49
2022-08-09T16:12:19.867Z,43.53
2022-08-09T16:17:22.758Z,42.92
2022-08-09T16:22:25.709Z,40.48
2022-08-09T16:27:30.264Z,41.02
2022-08-09T16:32:54.284Z,42.99
2022-08-09T16:37:59.351Z,43.16
2022-08-09T16:43:04.393Z,42.08
2022-08-09T16:48:50.604Z,39.53
2022-08-09T16:53:34.140Z,40.01
2022-08-09T16:58:39.906Z,40.94
2022-08-09T17:03:45.886Z,42.67
2022-08-09T17:08:58.955Z,44.90
2022-08-09T17:14:25.511Z,47.65
2022-08-09T17:19:46.314Z,50.21
2022-08-09T17:24:55.463Z,52.06
2022-08-09T17:29:58.779Z,51.72
2022-08-09T17:35:10.713Z,49.27
2022-08-09T17:40:18.256Z,48.23
2022-08-09T17:45:26.977Z,49.23
2022-08-09T17:50:37.101Z,51.36
2022-08-09T17:55:49.618Z,53.80
2022-08-09T18:00:55.025Z,55.56
2022-08-09T18:06:00.762Z,57.07
2022-08-09T18:11:04.502Z,58.60
2022-08-09T18:16:10.945Z,59.96
2022-08-09T18:21:23.069Z,61.76
2022-08-09T18:26:26.712Z,63.29
2022-08-09T18:31:51.247Z,64.25
2022-08-09T18:36:53.398Z,65.39
2022-08-09T18:41:56.599Z,66.38
2022-08-09T18:47:07.967Z,67.51
2022-08-09T18:52:27.249Z,68.36
2022-08-09T18:57:42.600Z,69.65
2022-08-09T19:02:51.268Z,70.22
2022-08-09T19:08:04.615Z,71.17
2022-08-09T19:13:20.806Z,72.70
2022-08-09T19:18:33.121Z,73.65
2022-08-09T19:24:36.357Z,74.44
2022-08-09T19:29:15.766Z,75.78
2022-08-09T19:34:23.199Z,76.85
2022-08-09T19:39:42.812Z,77.61
2022-08-09T19:44:50.919Z,77.94
2022-08-09T19:50:05.043Z,78.76
2022-08-09T19:55:12.902Z,79.60
2022-08-09T20:00:18.483Z,80.73
2022-08-09T20:05:23.708Z,82.00
2022-08-09T20:10:34.841Z,82.92
2022-08-09T20:16:34.152Z,83.61
2022-08-09T20:21:02.708Z,84.10
2022-08-09T20:26:06.938Z,84.33
2022-08-09T20:31:13.647Z,84.61
2022-08-09T20:36:19.132Z,85.11
2022-08-09T20:41:35.019Z,85.71
2022-08-09T20:46:44.280Z,86.54
2022-08-09T20:51:50.400Z,87.17
2022-08-09T20:56:54.161Z,88.15
2022-08-09T21:01:57.362Z,88.95
2022-08-09T21:07:11.794Z,89.50
2022-08-09T21:18:22.879Z,90.71
2022-08-09T21:22:54.152Z,91.06
2022-08-09T21:27:57.564Z,91.08
2022-08-09T21:33:00.281Z,91.64
2022-08-09T21:38:04.072Z,92.13
2022-08-09T21:43:09.486Z,92.18
2022-08-09T21:48:12.635Z,92.23
2022-08-09T21:53:15.810Z,92.36
2022-08-09T21:58:38.226Z,92.79
2022-08-09T22:03:58.923Z,92.91
2022-08-09T22:09:02.483Z,93.09
2022-08-09T22:14:05.937Z,93.23
2022-08-09T22:19:23.952Z,93.22
2022-08-09T22:24:39.475Z,93.43
2022-08-09T22:30:02.134Z,93.85
2022-08-09T22:36:00.876Z,93.70
2022-08-09T22:40:30.127Z,93.78
2022-08-09T22:48:15.361Z,94.16
2022-08-09T22:50:59.990Z,94.95
2022-08-09T22:56:30.954Z,95.33
2022-08-09T23:01:26.039Z,95.74
2022-08-09T23:06:50.998Z,95.71
2022-08-09T23:11:53.916Z,96.11
2022-08-09T23:16:56.796Z,96.34
2022-08-09T23:21:59.526Z,96.44
2022-08-09T23:27:02.217Z,96.65
2022-08-09T23:32:05.048Z,96.92
2022-08-09T23:37:08.206Z,96.64
2022-08-09T23:42:10.823Z,96.73
2022-08-09T23:47:13.522Z,96.65
2022-08-09T23:52:16.471Z,96.86
2022-08-09T23:57:20.352Z,96.88
